Time,TemperatureF,DewpointF,PressureIn,WindDirection,WindDirectionDegrees,WindSpeedMPH,WindSpeedGustMPH,Humidity,HourlyPrecipIn,Conditions,Clouds,dailyrainin,SoftwareType,DateUTC
2013-03-23 00:00:00,61.8,54.5,29.98,NE,45,0.0,4.0,77,0.00,,---,0.00,VWS V14.01,2013-03-23 04:00:00,
2013-03-23 00:30:00,61.3,54.4,29.97,NE,45,0.0,2.0,78,0.00,,---,0.00,VWS V14.01,2013-03-23 04:30:00,
2013-03-23 01:00:00,60.7,54.2,29.96,NE,45,0.0,1.0,79,0.00,,---,0.00,VWS V14.01,2013-03-23 05:00:00,
2013-03-23 01:30:00,59.8,54.3,29.96,NE,45,0.0,1.0,82,0.00,,---,0.00,VWS V14.01,2013-03-23 05:30:00,
2013-03-23 02:00:00,58.7,53.9,29.95,NE,45,0.0,0.0,84,0.00,,---,0.00,VWS V14.01,2013-03-23 06:00:00,
2013-03-23 02:30:00,57.2,53.1,29.94,NE,45,0.0,0.0,86,0.00,,---,0.00,VWS V14.01,2013-03-23 06:30:00,
2013-03-23 03:00:00,56.2,53.0,29.93,NE,45,0.0,0.0,89,0.00,,---,0.00,VWS V14.01,2013-03-23 07:00:00,
2013-03-23 03:30:00,55.5,52.6,29.92,NE,45,0.0,0.0,90,0.00,,---,0.00,VWS V14.01,2013-03-23 07:30:00,
2013-03-23 04:00:00,55.0,52.7,29.91,NE,45,0.0,0.0,92,0.00,,---,0.00,VWS V14.01,2013-03-23 08:00:00,
2013-03-23 04:30:00,56.2,55.4,29.89,NE,45,0.0,1.0,97,0.00,,---,0.00,VWS V14.01,2013-03-23 08:30:00,
2013-03-23 05:00:00,59.5,58.7,29.89,NE,45,0.0,2.0,97,0.00,,---,0.00,VWS V14.01,2013-03-23 09:00:00,
2013-03-23 05:30:00,61.6,60.5,29.89,NE,45,0.0,1.0,96,0.00,,---,0.00,VWS V14.01,2013-03-23 09:30:00,
2013-03-23 06:00:00,61.8,60.4,29.90,NE,45,1.0,3.0,95,0.00,,---,0.00,VWS V14.01,2013-03-23 10:00:00,
2013-03-23 06:30:00,61.5,60.3,29.90,NE,45,0.0,1.0,96,0.00,,---,0.00,VWS V14.01,2013-03-23 10:30:00,
2013-03-23 07:00:00,61.8,60.7,29.92,NE,45,0.0,3.0,96,0.00,,---,0.00,VWS V14.01,2013-03-23 11:00:00,
2013-03-23 07:30:00,62.0,61.1,29.92,NE,45,1.0,4.0,97,0.00,,---,0.00,VWS V14.01,2013-03-23 11:30:00,
2013-03-23 08:00:00,62.4,61.5,29.92,NE,45,0.0,3.0,97,0.00,,---,0.00,VWS V14.01,2013-03-23 12:00:00,
2013-03-23 08:30:00,63.2,62.3,29.91,ESE,112,1.0,5.0,97,0.00,,---,0.00,VWS V14.01,2013-03-23 12:30:00,
2013-03-23 09:00:00,64.1,63.2,29.92,SE,135,1.0,5.0,97,0.04,,---,0.04,VWS V14.01,2013-03-23 13:00:00,
2013-03-23 09:30:00,64.9,64.6,29.91,SE,135,1.0,4.0,99,0.04,,---,0.04,VWS V14.01,2013-03-23 13:30:00,
2013-03-23 10:00:00,66.7,66.1,29.90,SE,135,1.0,4.0,98,0.04,,---,0.04,VWS V14.01,2013-03-23 14:00:00,
2013-03-23 10:30:00,68.7,67.5,29.90,SE,135,2.0,7.0,96,0.00,,---,0.04,VWS V14.01,2013-03-23 14:30:00,
2013-03-23 11:00:00,71.7,69.3,29.89,South,180,3.0,9.0,92,0.00,,---,0.04,VWS V14.01,2013-03-23 15:00:00,
2013-03-23 11:30:00,74.6,69.8,29.89,SSE,158,3.0,7.0,85,0.00,,---,0.04,VWS V14.01,2013-03-23 15:30:00,
2013-03-23 12:00:00,77.1,71.2,29.88,SW,225,3.0,9.0,82,0.00,,---,0.04,VWS V14.01,2013-03-23 16:00:00,
2013-03-23 12:30:00,79.2,71.4,29.87,SSW,202,4.0,10.0,77,0.00,,---,0.04,VWS V14.01,2013-03-23 16:30:00,
2013-03-23 13:00:00,80.0,72.5,29.85,WSW,248,4.0,11.0,78,0.00,,---,0.04,VWS V14.01,2013-03-23 17:00:00,
2013-03-23 13:30:00,81.7,71.8,29.84,WSW,248,5.0,11.0,72,0.00,,---,0.04,VWS V14.01,2013-03-23 17:30:00,
2013-03-23 14:00:00,82.4,72.5,29.83,West,270,5.0,13.0,72,0.00,,---,0.04,VWS V14.01,2013-03-23 18:00:00,
2013-03-23 14:30:00,81.9,70.7,29.82,West,270,4.0,12.0,69,0.00,,---,0.04,VWS V14.01,2013-03-23 18:30:00,
2013-03-23 15:00:00,84.0,70.1,29.80,WSW,248,6.0,15.0,63,0.00,,---,0.04,VWS V14.01,2013-03-23 19:00:00,
2013-03-23 15:30:00,84.1,70.6,29.78,West,270,7.0,21.0,64,0.00,,---,0.04,VWS V14.01,2013-03-23 19:30:00,
2013-03-23 16:00:00,83.0,70.0,29.77,West,270,8.0,18.0,65,0.00,,---,0.04,VWS V14.01,2013-03-23 20:00:00,
2013-03-23 16:30:00,82.3,70.3,29.76,West,270,8.0,17.0,67,0.00,,---,0.04,VWS V14.01,2013-03-23 20:30:00,
2013-03-23 17:00:00,82.2,70.6,29.76,West,270,6.0,13.0,68,0.00,,---,0.04,VWS V14.01,2013-03-23 21:00:00,
2013-03-23 17:30:00,81.7,71.0,29.76,West,270,4.0,10.0,70,0.00,,---,0.04,VWS V14.01,2013-03-23 21:30:00,
2013-03-23 18:00:00,81.4,70.3,29.76,West,270,5.0,12.0,69,0.00,,---,0.04,VWS V14.01,2013-03-23 22:00:00,
2013-03-23 18:30:00,81.3,70.2,29.77,WSW,248,2.0,8.0,69,0.00,,---,0.04,VWS V14.01,2013-03-23 22:30:00,
2013-03-23 19:00:00,80.6,71.6,29.78,WNW,292,3.0,7.0,74,0.00,,---,0.04,VWS V14.01,2013-03-23 23:00:00,
2013-03-23 19:30:00,79.6,71.4,29.79,WNW,292,1.0,8.0,76,0.00,,---,0.04,VWS V14.01,2013-03-23 23:30:00,
2013-03-23 20:00:00,78.6,71.6,29.80,WNW,292,0.0,1.0,79,0.00,,---,0.04,VWS V14.01,2013-03-24 00:00:00,
2013-03-23 20:30:00,77.8,70.8,29.82,WNW,292,0.0,4.0,79,0.00,,---,0.04,VWS V14.01,2013-03-24 00:30:00,
2013-03-23 21:00:00,73.9,69.1,29.84,ENE,68,5.0,14.0,85,0.00,,---,0.04,VWS V14.01,2013-03-24 01:00:00,
2013-03-23 21:30:00,69.8,66.4,29.84,ENE,68,6.0,11.0,89,0.00,,---,0.04,VWS V14.01,2013-03-24 01:30:00,
2013-03-23 22:00:00,68.6,65.6,29.85,ENE,68,4.0,11.0,90,0.00,,---,0.04,VWS V14.01,2013-03-24 02:00:00,
2013-03-23 22:30:00,68.3,65.3,29.85,East,90,3.0,8.0,90,0.00,,---,0.04,VWS V14.01,2013-03-24 02:30:00,
2013-03-23 23:00:00,68.6,65.6,29.85,ESE,112,2.0,8.0,90,0.00,,---,0.04,VWS V14.01,2013-03-24 03:00:00,
2013-03-23 23:30:00,68.4,65.0,29.83,ESE,112,3.0,9.0,89,0.00,,---,0.04,VWS V14.01,2013-03-24 03:30:00,